createdAt,value
2018-07-14T04:55:00.317Z,97291.97
2018-07-14T04:56:07.472Z,97291.33
2018-07-14T04:57:17.389Z,97294.67
2018-07-14T04:58:26.434Z,97290.98
2018-07-14T04:59:34.044Z,97294.98
2018-07-14T05:00:42.028Z,97299.88
2018-07-14T05:01:50.138Z,97296.95
2018-07-14T05:03:00.875Z,97306.52
2018-07-14T05:04:10.667Z,97298.20
2018-07-14T05:05:17.685Z,97308.59
2018-07-14T05:06:25.021Z,97303.20
2018-07-14T05:07:32.327Z,97299.66
2018-07-14T05:08:40.437Z,97292.31
2018-07-14T05:09:47.664Z,97297.05
2018-07-14T05:10:54.864Z,97290.99
2018-07-14T05:12:02.512Z,97302.18
2018-07-14T05:13:09.413Z,97298.39
2018-07-14T05:14:16.815Z,97299.24
2018-07-14T05:15:23.716Z,97297.86
2018-07-14T05:16:30.778Z,97299.86
2018-07-14T05:17:37.966Z,97300.96
2018-07-14T05:18:44.310Z,97302.03
2018-07-14T05:19:51.807Z,97297.20
2018-07-14T05:20:58.005Z,97305.53
2018-07-14T05:22:04.220Z,97302.09
2018-07-14T05:23:10.912Z,97304.73
2018-07-14T05:24:18.124Z,97297.80
2018-07-14T05:25:24.436Z,97299.24
2018-07-14T05:26:30.837Z,97301.73
2018-07-14T05:27:40.751Z,97299.55
2018-07-14T05:28:47.116Z,97300.59
2018-07-14T05:29:53.351Z,97306.55
2018-07-14T05:31:00.043Z,97300.52
2018-07-14T05:32:07.936Z,97305.88
2018-07-14T05:33:14.364Z,97311.25
2018-07-14T05:34:20.820Z,97308.00
2018-07-14T05:35:27.002Z,97313.09
2018-07-14T05:36:35.980Z,97312.06
2018-07-14T05:37:42.643Z,97307.54
2018-07-14T05:38:48.758Z,97306.66
2018-07-14T05:39:55.042Z,97304.23
2018-07-14T05:41:01.650Z,97302.19
2018-07-14T05:42:08.007Z,97309.17
2018-07-14T05:43:14.288Z,97306.23
2018-07-14T05:44:20.388Z,97304.44
2018-07-14T05:45:27.531Z,97311.57
2018-07-14T05:46:33.962Z,97312.70
2018-07-14T05:47:40.268Z,97312.25
2018-07-14T05:48:46.435Z,97315.23
2018-07-14T05:49:52.573Z,97315.12
2018-07-14T05:50:58.752Z,97310.80
2018-07-14T05:52:05.335Z,97308.54
2018-07-14T05:53:11.956Z,97312.05
2018-07-14T05:54:18.368Z,97312.95
2018-07-14T05:55:25.301Z,97315.44
2018-07-14T05:56:31.420Z,97313.88
2018-07-14T05:57:37.492Z,97312.80
2018-07-14T05:58:43.622Z,97311.72
2018-07-14T05:59:50.057Z,97313.69
2018-07-14T06:00:57.374Z,97310.33
2018-07-14T06:02:03.682Z,97308.89
2018-07-14T06:03:10.636Z,97309.03
2018-07-14T06:04:16.937Z,97312.92
2018-07-14T06:05:24.487Z,97313.13
2018-07-14T06:06:30.762Z,97312.94
2018-07-14T06:07:38.806Z,97309.98
2018-07-14T06:08:45.636Z,97312.75
2018-07-14T06:09:52.667Z,97309.09
2018-07-14T06:10:59.964Z,97307.61
2018-07-14T06:12:09.120Z,97306.33
2018-07-14T06:13:15.566Z,97303.87
2018-07-14T06:14:22.600Z,97311.83
2018-07-14T06:15:29.736Z,97310.70
2018-07-14T06:16:36.846Z,97309.01
2018-07-14T06:17:43.147Z,97302.84
2018-07-14T06:18:49.512Z,97305.58
2018-07-14T06:19:55.878Z,97306.36
2018-07-14T06:21:02.142Z,97298.67
2018-07-14T06:22:09.663Z,97298.80
2018-07-14T06:23:15.865Z,97294.60
2018-07-14T06:24:23.358Z,97302.20
2018-07-14T06:25:29.652Z,97301.49
2018-07-14T06:26:35.801Z,97299.66
2018-07-14T06:27:44.295Z,97298.22
2018-07-14T06:28:50.477Z,97303.38
2018-07-14T06:29:57.516Z,97301.27
2018-07-14T06:31:04.682Z,97304.16
2018-07-14T06:32:10.906Z,97306.07
2018-07-14T06:33:17.125Z,97313.50
2018-07-14T06:34:24.784Z,97308.74
2018-07-14T06:35:31.389Z,97302.47
2018-07-14T06:36:38.476Z,97306.41
2018-07-14T06:37:44.766Z,97306.98
2018-07-14T06:38:50.938Z,97302.65
2018-07-14T06:39:57.172Z,97311.45
2018-07-14T06:41:03.514Z,97312.70
2018-07-14T06:42:10.245Z,97309.63
2018-07-14T06:43:17.319Z,97306.97
2018-07-14T06:44:24.110Z,97308.05
2018-07-14T06:45:30.390Z,97307.25
2018-07-14T06:46:36.504Z,97307.73
2018-07-14T06:47:42.908Z,97311.07
2018-07-14T06:48:49.135Z,97311.52
2018-07-14T06:49:58.748Z,97307.23
2018-07-14T06:51:04.981Z,97308.30
2018-07-14T06:52:11.631Z,97304.30
2018-07-14T06:53:17.866Z,97311.10
2018-07-14T06:54:24.189Z,97312.81
2018-07-14T06:55:30.341Z,97310.11
2018-07-14T06:56:36.334Z,97312.17
2018-07-14T06:57:42.527Z,97310.45
2018-07-14T06:58:49.074Z,97309.69
2018-07-14T06:59:55.318Z,97310.33
2018-07-14T07:01:01.524Z,97318.66
2018-07-14T07:02:07.866Z,97309.62
2018-07-14T07:03:14.983Z,97315.21
2018-07-14T07:04:21.948Z,97316.63
2018-07-14T07:05:28.107Z,97321.78
2018-07-14T07:06:34.326Z,97324.18
2018-07-14T07:07:42.008Z,97323.64
2018-07-14T07:08:49.013Z,97326.30
2018-07-14T07:09:55.198Z,97327.38
2018-07-14T07:11:02.282Z,97332.58
2018-07-14T07:12:08.944Z,97328.11
2018-07-14T07:13:15.134Z,97324.40
2018-07-14T07:14:22.419Z,97318.67
2018-07-14T07:15:29.572Z,97323.84
2018-07-14T07:16:35.932Z,97317.50
2018-07-14T07:17:42.092Z,97320.48
2018-07-14T07:18:49.054Z,97318.52
2018-07-14T07:19:55.306Z,97326.41
2018-07-14T07:21:04.156Z,97318.27
2018-07-14T07:22:12.142Z,97320.44
2018-07-14T07:23:19.538Z,97320.44
2018-07-14T07:24:25.764Z,97321.05
2018-07-14T07:25:32.052Z,97316.33
2018-07-14T07:26:40.500Z,97321.69
2018-07-14T07:27:48.003Z,97322.50
2018-07-14T07:28:54.697Z,97321.16
2018-07-14T07:30:00.968Z,97312.05
2018-07-14T07:31:07.219Z,97315.43
2018-07-14T07:32:13.666Z,97300.39
2018-07-14T07:33:20.848Z,97304.34
2018-07-14T07:34:29.699Z,97298.00
2018-07-14T07:35:35.914Z,97299.58
2018-07-14T07:36:42.236Z,97297.01
2018-07-14T07:37:49.522Z,97302.58
2018-07-14T07:38:55.685Z,97298.64
2018-07-14T07:40:01.867Z,97300.80
2018-07-14T07:41:08.100Z,97303.25
2018-07-14T07:42:15.256Z,97299.69
2018-07-14T07:43:21.591Z,97304.84
2018-07-14T07:44:27.838Z,97304.44
2018-07-14T07:45:34.526Z,97299.88
2018-07-14T07:46:40.733Z,97308.41
2018-07-14T07:47:48.044Z,97310.19
2018-07-14T07:48:56.080Z,97306.19
2018-07-14T07:50:03.233Z,97306.39
2018-07-14T07:51:11.305Z,97307.56
2018-07-14T07:52:18.359Z,97297.59
2018-07-14T07:53:24.394Z,97306.28
2018-07-14T07:54:33.199Z,97310.37
2018-07-14T07:55:39.768Z,97316.65
2018-07-14T07:56:46.434Z,97313.55
2018-07-14T07:57:53.501Z,97317.80
2018-07-14T07:59:00.684Z,97317.48
2018-07-14T08:00:07.450Z,97319.20
2018-07-14T08:01:13.669Z,97317.09
2018-07-14T08:02:20.418Z,97313.39
2018-07-14T08:03:28.540Z,97307.20
2018-07-14T08:04:36.550Z,97310.14
2018-07-14T08:05:44.798Z,97309.86
2018-07-14T08:06:51.088Z,97305.91
2018-07-14T08:07:57.876Z,97302.37
2018-07-14T08:09:05.920Z,97302.01
2018-07-14T08:10:15.151Z,97302.52
2018-07-14T08:11:21.773Z,97301.79
2018-07-14T08:12:28.083Z,97308.48
2018-07-14T08:13:34.235Z,97313.39
2018-07-14T08:14:41.421Z,97306.58
2018-07-14T08:15:47.648Z,97307.99
2018-07-14T08:16:54.737Z,97313.77
2018-07-14T08:18:01.736Z,97309.26
2018-07-14T08:19:10.932Z,97319.61
2018-07-14T08:20:19.221Z,97314.55
2018-07-14T08:21:26.480Z,97317.72
2018-07-14T08:22:33.181Z,97323.38
2018-07-14T08:23:39.406Z,97310.70
2018-07-14T08:24:46.800Z,97315.29
2018-07-14T08:25:54.307Z,97313.50
2018-07-14T08:27:00.628Z,97309.92
2018-07-14T08:28:07.806Z,97307.47
2018-07-14T08:29:14.073Z,97306.70
2018-07-14T08:30:21.155Z,97306.96
2018-07-14T08:31:28.296Z,97302.45
2018-07-14T08:32:34.363Z,97310.62
2018-07-14T08:33:41.722Z,97308.30
2018-07-14T08:34:48.903Z,97308.53
2018-07-14T08:35:55.994Z,97312.21
2018-07-14T08:37:02.314Z,97308.78
2018-07-14T08:38:09.538Z,97315.99
2018-07-14T08:39:15.752Z,97310.59
2018-07-14T08:40:23.982Z,97308.66
2018-07-14T08:41:30.290Z,97309.86
2018-07-14T08:42:36.487Z,97310.66
2018-07-14T08:43:43.470Z,97310.41
2018-07-14T08:44:52.841Z,97310.28
2018-07-14T08:46:00.740Z,97311.36
2018-07-14T08:47:07.252Z,97306.52
2018-07-14T08:48:13.364Z,97308.14
2018-07-14T08:49:20.746Z,97304.72
2018-07-14T08:50:27.347Z,97305.88
2018-07-14T08:51:35.211Z,97307.55
2018-07-14T08:52:41.550Z,97304.04
2018-07-14T08:53:47.794Z,97304.64
2018-07-14T08:54:53.963Z,97309.03
2018-07-14T08:56:02.781Z,97300.49
2018-07-14T08:57:09.843Z,97301.37
2018-07-14T08:58:17.155Z,97298.94
2018-07-14T08:59:23.282Z,97308.92
2018-07-14T09:00:30.438Z,97295.88
2018-07-14T09:01:36.687Z,97287.94
2018-07-14T09:02:45.340Z,97283.90
2018-07-14T09:03:52.466Z,97285.22
2018-07-14T09:04:58.807Z,97286.44
2018-07-14T09:06:05.364Z,97288.70
2018-07-14T09:07:12.835Z,97293.84
2018-07-14T09:08:19.503Z,97292.17
2018-07-14T09:09:25.616Z,97293.91
2018-07-14T09:10:32.916Z,97284.38
2018-07-14T09:11:39.676Z,97279.80
2018-07-14T09:12:46.648Z,97273.41
2018-07-14T09:13:54.095Z,97268.80
2018-07-14T09:15:00.253Z,97261.12
2018-07-14T09:16:07.465Z,97258.67
2018-07-14T09:17:13.688Z,97249.03
2018-07-14T09:18:20.303Z,97249.15
2018-07-14T09:19:28.596Z,97255.08
2018-07-14T09:20:35.160Z,97252.15
2018-07-14T09:21:42.377Z,97251.22
2018-07-14T09:22:48.652Z,97244.72
2018-07-14T09:23:55.094Z,97242.59
2018-07-14T09:25:02.078Z,97243.52
2018-07-14T09:26:10.629Z,97236.57
2018-07-14T09:27:17.666Z,97231.46
2018-07-14T09:28:28.070Z,97250.41
2018-07-14T09:29:36.932Z,97241.20
2018-07-14T09:30:47.857Z,97242.77
2018-07-14T09:31:56.577Z,97244.91
2018-07-14T09:33:07.799Z,97247.16
2018-07-14T09:34:17.200Z,97249.16
2018-07-14T09:35:26.152Z,97244.72
2018-07-14T09:36:35.043Z,97249.61
2018-07-14T09:37:43.414Z,97247.18
2018-07-14T09:38:54.528Z,97254.78
2018-07-14T09:40:04.161Z,97260.95
2018-07-14T09:41:13.300Z,97260.41
2018-07-14T09:42:21.955Z,97259.81
2018-07-14T09:43:31.528Z,97263.95
2018-07-14T09:44:40.497Z,97260.34
2018-07-14T09:45:49.026Z,97248.27
2018-07-14T09:46:59.048Z,97247.51
2018-07-14T09:48:09.330Z,97244.62
2018-07-14T09:49:15.752Z,97231.12
2018-07-14T09:50:22.060Z,97234.37
2018-07-14T09:51:30.720Z,97225.45
2018-07-14T09:52:38.350Z,97234.69
2018-07-14T09:53:45.898Z,97229.75
2018-07-14T09:54:52.468Z,97221.59
2018-07-14T09:55:59.451Z,97218.05
2018-07-14T09:57:05.990Z,97210.15
2018-07-14T09:58:13.176Z,97204.27
2018-07-14T09:59:20.380Z,97197.02
2018-07-14T10:00:32.674Z,97200.49
2018-07-14T10:01:41.269Z,97199.60
2018-07-14T10:02:49.335Z,97202.67
2018-07-14T10:03:55.904Z,97202.15
2018-07-14T10:05:02.636Z,97205.59
2018-07-14T10:06:14.006Z,97208.07
2018-07-14T10:07:20.318Z,97214.05
2018-07-14T10:08:27.090Z,97214.86
2018-07-14T10:09:33.428Z,97218.02
2018-07-14T10:10:40.755Z,97219.98
2018-07-14T10:11:47.204Z,97218.02
2018-07-14T10:12:53.522Z,97212.84
2018-07-14T10:14:01.018Z,97220.38
2018-07-14T10:15:09.594Z,97213.25
2018-07-14T10:16:19.317Z,97209.67
2018-07-14T10:17:26.063Z,97214.62
2018-07-14T10:18:33.058Z,97219.59
2018-07-14T10:19:39.480Z,97217.23
2018-07-14T10:20:46.717Z,97215.81
2018-07-14T10:21:54.038Z,97215.23
2018-07-14T10:23:01.620Z,97205.36
2018-07-14T10:24:08.843Z,97208.93
2018-07-14T10:25:15.214Z,97203.55
2018-07-14T10:26:21.506Z,97205.13
2018-07-14T10:27:28.248Z,97202.30
2018-07-14T10:28:35.645Z,97196.75
2018-07-14T10:29:41.869Z,97193.72
2018-07-14T10:30:48.042Z,97194.25
2018-07-14T10:31:54.164Z,97193.20
2018-07-14T10:33:00.280Z,97186.47
2018-07-14T10:34:08.386Z,97194.60
2018-07-14T10:35:15.641Z,97199.31
2018-07-14T10:36:22.037Z,97200.66
2018-07-14T10:37:28.994Z,97194.23
2018-07-14T10:38:36.935Z,97195.95
2018-07-14T10:39:43.206Z,97199.06
2018-07-14T10:40:49.433Z,97198.75
2018-07-14T10:41:56.451Z,97193.11
2018-07-14T10:43:03.714Z,97199.36
2018-07-14T10:44:09.912Z,97197.70
2018-07-14T10:45:16.244Z,97193.31
2018-07-14T10:46:22.395Z,97195.03
2018-07-14T10:47:29.478Z,97191.47
2018-07-14T10:48:38.380Z,97183.20
2018-07-14T10:49:44.970Z,97187.02
2018-07-14T10:50:53.403Z,97180.13
2018-07-14T10:52:02.173Z,97184.70
2018-07-14T10:53:11.697Z,97182.00
2018-07-14T10:54:19.844Z,97180.03
2018-07-14T10:55:25.945Z,97185.38
2018-07-14T10:56:32.588Z,97180.05
2018-07-14T10:57:38.803Z,97181.04
2018-07-14T10:58:45.237Z,97184.41
2018-07-14T10:59:52.103Z,97176.94
2018-07-14T11:01:00.759Z,97175.77
2018-07-14T11:02:08.372Z,97177.95
2018-07-14T11:03:15.385Z,97181.89
2018-07-14T11:04:22.509Z,97172.23
2018-07-14T11:05:30.724Z,97182.55
2018-07-14T11:06:37.128Z,97178.43
2018-07-14T11:07:44.527Z,97171.34
2018-07-14T11:08:50.688Z,97173.13
2018-07-14T11:09:56.632Z,97172.54
2018-07-14T11:11:04.367Z,97178.84
2018-07-14T11:12:10.468Z,97176.78
2018-07-14T11:13:21.207Z,97174.55
2018-07-14T11:14:31.252Z,97173.30
2018-07-14T11:15:37.880Z,97164.79
2018-07-14T11:16:45.645Z,97163.19
2018-07-14T11:17:52.610Z,97160.64
2018-07-14T11:18:58.675Z,97160.64
2018-07-14T11:20:05.229Z,97155.67
2018-07-14T11:21:11.651Z,97157.83
2018-07-14T11:22:18.597Z,97158.16
2018-07-14T11:23:28.367Z,97157.83
2018-07-14T11:24:34.549Z,97156.97
2018-07-14T11:25:41.493Z,97155.92
2018-07-14T11:26:51.842Z,97158.28
2018-07-14T11:28:01.236Z,97160.43
2018-07-14T11:29:09.499Z,97159.81
2018-07-14T11:30:16.117Z,97155.78
2018-07-14T11:31:22.267Z,97155.97
2018-07-14T11:32:28.249Z,97154.22
2018-07-14T11:33:36.599Z,97151.31
2018-07-14T11:34:42.486Z,97152.17
2018-07-14T11:35:48.525Z,97150.21
2018-07-14T11:36:56.419Z,97151.63
2018-07-14T11:38:02.471Z,97152.45
2018-07-14T11:39:08.853Z,97151.91
2018-07-14T11:40:17.155Z,97155.28
2018-07-14T11:41:24.231Z,97147.79
2018-07-14T11:42:30.539Z,97139.06
2018-07-14T11:43:37.289Z,97139.47
2018-07-14T11:44:44.454Z,97140.45
2018-07-14T11:45:52.751Z,97128.81
2018-07-14T11:47:00.166Z,97131.78
2018-07-14T11:48:07.093Z,97130.19
2018-07-14T11:49:13.348Z,97121.07
2018-07-14T11:50:19.577Z,97126.84
2018-07-14T11:51:26.040Z,97119.96
2018-07-14T11:52:33.023Z,97126.13
2018-07-14T11:53:41.812Z,97115.90
2018-07-14T11:54:49.413Z,97120.08
2018-07-14T11:55:55.549Z,97118.11
2018-07-14T11:57:01.567Z,97118.88
2018-07-14T11:58:07.399Z,97110.00
2018-07-14T11:59:14.358Z,97119.67
2018-07-14T12:00:21.491Z,97115.92
2018-07-14T12:01:28.823Z,97111.54
2018-07-14T12:02:35.051Z,97117.25
2018-07-14T12:03:42.751Z,97114.67
2018-07-14T12:04:49.736Z,97118.36
2018-07-14T12:05:55.949Z,97116.77
2018-07-14T12:07:01.961Z,97120.89
2018-07-14T12:08:11.025Z,97105.84
2018-07-14T12:09:17.194Z,97111.73
2018-07-14T12:10:23.238Z,97110.51
2018-07-14T12:11:29.381Z,97112.63
2018-07-14T12:12:35.885Z,97109.40
2018-07-14T12:13:42.733Z,97105.41
2018-07-14T12:14:49.311Z,97104.54
2018-07-14T12:15:55.830Z,97101.16
2018-07-14T12:17:04.769Z,97100.73
2018-07-14T12:18:11.186Z,97103.45
2018-07-14T12:19:19.228Z,97097.71
2018-07-14T12:20:25.505Z,97102.19
2018-07-14T12:21:31.477Z,97104.14
2018-07-14T12:22:37.519Z,97098.41
2018-07-14T12:23:44.888Z,97093.06
2018-07-14T12:24:51.140Z,97097.78
2018-07-14T12:25:57.994Z,97093.25
2018-07-14T12:27:04.156Z,97086.38
2018-07-14T12:28:10.257Z,97084.45
2018-07-14T12:29:16.377Z,97082.09
2018-07-14T12:30:22.587Z,97082.31
2018-07-14T12:31:29.551Z,97083.69
2018-07-14T12:32:36.212Z,97080.31
2018-07-14T12:33:43.217Z,97085.98
2018-07-14T12:34:50.147Z,97081.22
2018-07-14T12:35:56.868Z,97086.73
2018-07-14T12:37:06.606Z,97082.16
2018-07-14T12:38:12.549Z,97083.14
2018-07-14T12:39:20.040Z,97078.12
2018-07-14T12:40:26.340Z,97076.30
2018-07-14T12:41:32.504Z,97076.81
2018-07-14T12:42:38.574Z,97079.39
2018-07-14T12:43:46.671Z,97082.52
2018-07-14T12:44:52.818Z,97075.80
2018-07-14T12:45:59.200Z,97074.20
2018-07-14T12:47:05.470Z,97077.13
2018-07-14T12:48:12.052Z,97076.11
2018-07-14T12:49:18.215Z,97068.85
2018-07-14T12:50:25.271Z,97065.52
2018-07-14T12:51:31.634Z,97068.85
2018-07-14T12:52:38.973Z,97069.66
2018-07-14T12:53:45.260Z,97065.91
2018-07-14T12:54:51.320Z,97073.22
2018-07-14T12:55:58.603Z,97078.95
2018-07-14T12:57:05.665Z,97075.25
2018-07-14T12:58:13.682Z,97068.36
2018-07-14T12:59:20.916Z,97064.90
2018-07-14T13:00:27.152Z,97063.16
2018-07-14T13:01:33.277Z,97061.41
2018-07-14T13:02:43.538Z,97060.62
2018-07-14T13:03:50.902Z,97056.84
2018-07-14T13:04:57.234Z,97051.87
2018-07-14T13:06:03.382Z,97051.03
2018-07-14T13:07:09.537Z,97051.36
2018-07-14T13:08:15.782Z,97046.77
2018-07-14T13:09:21.805Z,97052.25
2018-07-14T13:10:27.928Z,97058.71
2018-07-14T13:11:34.075Z,97055.52
2018-07-14T13:12:40.278Z,97063.43
2018-07-14T13:13:46.381Z,97062.01
2018-07-14T13:14:52.497Z,97052.94
2018-07-14T13:16:00.166Z,97055.91
2018-07-14T13:17:07.472Z,97056.09
2018-07-14T13:18:13.672Z,97055.52
2018-07-14T13:19:20.633Z,97057.48
2018-07-14T13:20:26.768Z,97054.72
2018-07-14T13:21:32.902Z,97053.95
2018-07-14T13:22:39.058Z,97049.20
2018-07-14T13:23:45.088Z,97045.68
2018-07-14T13:24:51.389Z,97038.05
2018-07-14T13:25:58.922Z,97043.39
2018-07-14T13:27:05.244Z,97039.84
2018-07-14T13:28:11.358Z,97038.06
2018-07-14T13:29:18.375Z,97041.84
2018-07-14T13:30:25.930Z,97042.85
2018-07-14T13:31:32.634Z,97038.09
2018-07-14T13:32:40.270Z,97039.91
2018-07-14T13:33:46.326Z,97032.80
2018-07-14T13:34:52.868Z,97032.80
2018-07-14T13:35:59.910Z,97030.04
2018-07-14T13:37:07.074Z,97031.23
2018-07-14T13:38:13.115Z,97026.95
2018-07-14T13:39:20.096Z,97027.31
2018-07-14T13:40:26.190Z,97027.72
2018-07-14T13:41:33.689Z,97023.00
2018-07-14T13:42:41.466Z,97024.38
2018-07-14T13:43:48.019Z,97021.83
2018-07-14T13:44:55.028Z,97021.44
2018-07-14T13:46:01.320Z,97021.10
2018-07-14T13:47:08.922Z,97024.88
2018-07-14T13:48:21.322Z,97017.58
2018-07-14T13:49:29.714Z,97013.44
2018-07-14T13:50:36.234Z,97018.16
2018-07-14T13:51:42.375Z,97016.78
2018-07-14T13:52:48.448Z,97010.89
2018-07-14T13:53:55.554Z,97007.55
2018-07-14T13:55:01.700Z,97008.93
2018-07-14T13:56:08.748Z,97011.27
2018-07-14T13:57:14.993Z,97010.80
2018-07-14T13:58:21.082Z,97003.23
2018-07-14T13:59:28.433Z,97002.04
2018-07-14T14:00:35.370Z,97001.24
2018-07-14T14:01:41.496Z,97007.34
2018-07-14T14:02:48.602Z,97007.34
2018-07-14T14:03:54.579Z,97005.75
2018-07-14T14:05:01.501Z,96998.66
2018-07-14T14:06:10.125Z,96990.75
2018-07-14T14:07:16.303Z,96995.47
2018-07-14T14:08:24.329Z,96992.13
2018-07-14T14:09:30.440Z,96987.62
2018-07-14T14:10:36.518Z,96991.95
2018-07-14T14:11:43.329Z,96991.77
2018-07-14T14:12:49.481Z,96989.00
2018-07-14T14:13:59.703Z,96980.51
2018-07-14T14:15:06.107Z,96982.69
2018-07-14T14:16:12.368Z,96992.96
2018-07-14T14:17:18.259Z,96981.53
2018-07-14T14:18:24.638Z,96983.52
2018-07-14T14:19:33.071Z,96974.08
2018-07-14T14:20:39.283Z,96978.66
2018-07-14T14:21:45.743Z,96978.44
2018-07-14T14:22:53.363Z,96976.84
2018-07-14T14:23:59.285Z,96970.70
2018-07-14T14:25:06.357Z,96967.95
2018-07-14T14:26:13.799Z,96968.52
2018-07-14T14:27:19.997Z,96970.48
2018-07-14T14:28:26.253Z,96973.06
2018-07-14T14:29:32.280Z,96975.61
2018-07-14T14:30:39.080Z,96973.25
2018-07-14T14:31:46.771Z,96972.66
2018-07-14T14:32:54.500Z,96970.70
2018-07-14T14:34:00.439Z,96967.77
2018-07-14T14:35:06.564Z,96972.12
2018-07-14T14:36:12.637Z,96975.67
2018-07-14T14:37:24.109Z,96964.85
2018-07-14T14:38:30.212Z,96971.75
2018-07-14T14:39:36.581Z,96969.17
2018-07-14T14:40:42.616Z,96965.04
2018-07-14T14:41:48.782Z,96966.63
2018-07-14T14:42:56.546Z,96967.43
2018-07-14T14:44:03.718Z,96965.47
2018-07-14T14:45:10.486Z,96972.73
2018-07-14T14:46:17.815Z,96973.86
2018-07-14T14:47:24.781Z,96966.97
2018-07-14T14:48:31.289Z,96966.56
2018-07-14T14:49:38.561Z,96961.02
2018-07-14T14:50:44.545Z,96963.77
2018-07-14T14:51:50.466Z,96959.41
2018-07-14T14:52:56.568Z,96958.03
2018-07-14T14:54:02.612Z,96956.08
2018-07-14T14:55:09.659Z,96950.77
2018-07-14T14:56:15.720Z,96949.61
2018-07-14T14:57:21.854Z,96953.16
2018-07-14T14:58:28.861Z,96949.79
2018-07-14T14:59:35.036Z,96948.23
2018-07-14T15:00:41.494Z,96950.41
2018-07-14T15:01:47.965Z,96950.38
2018-07-14T15:02:56.453Z,96952.08
2018-07-14T15:04:03.042Z,96951.61
2018-07-14T15:05:09.100Z,96952.34
2018-07-14T15:06:15.285Z,96949.54
2018-07-14T15:07:22.120Z,96955.05
2018-07-14T15:08:29.523Z,96950.92
2018-07-14T15:09:38.419Z,96957.45
2018-07-14T15:10:46.481Z,96956.26
2018-07-14T15:11:54.435Z,96948.56
2018-07-14T15:13:01.479Z,96951.53
2018-07-14T15:14:08.534Z,96949.94
2018-07-14T15:15:14.717Z,96949.50
2018-07-14T15:16:20.855Z,96948.92
2018-07-14T15:17:26.977Z,96949.33
2018-07-14T15:18:33.256Z,96947.00
2018-07-14T15:19:39.805Z,96948.56
2018-07-14T15:20:46.646Z,96947.80
2018-07-14T15:21:53.772Z,96944.02
2018-07-14T15:23:00.027Z,96953.67
2018-07-14T15:24:07.039Z,96959.98
2018-07-14T15:25:13.506Z,96956.26
2018-07-14T15:26:21.461Z,96956.26
2018-07-14T15:27:27.588Z,96955.89
2018-07-14T15:28:33.565Z,96962.03
2018-07-14T15:29:39.563Z,96950.99
2018-07-14T15:30:45.931Z,96952.98
2018-07-14T15:31:52.070Z,96954.77
2018-07-14T15:32:58.415Z,96951.43
2018-07-14T15:34:04.444Z,96948.67
2018-07-14T15:35:10.619Z,96948.09
2018-07-14T15:36:16.693Z,96948.30
2018-07-14T15:37:23.703Z,96956.00
2018-07-14T15:38:30.797Z,96953.82
2018-07-14T15:39:36.857Z,96960.14
2018-07-14T15:40:43.443Z,96953.82
2018-07-14T15:41:49.488Z,96955.20
2018-07-14T15:42:55.653Z,96952.23
2018-07-14T15:44:01.689Z,96952.81
2018-07-14T15:45:08.153Z,96949.84
2018-07-14T15:46:14.183Z,96949.43
2018-07-14T15:47:20.821Z,96950.02
2018-07-14T15:48:28.580Z,96942.32
2018-07-14T15:49:36.025Z,96942.32
2018-07-14T15:50:42.485Z,96938.00
2018-07-14T15:51:48.649Z,96935.82
2018-07-14T15:52:54.677Z,96937.20
2018-07-14T15:54:00.732Z,96930.52
2018-07-14T15:55:06.997Z,96939.95
2018-07-14T15:56:14.641Z,96937.78
2018-07-14T15:57:21.635Z,96934.80
2018-07-14T15:58:27.752Z,96934.80
2018-07-14T15:59:39.165Z,96925.55
2018-07-14T16:00:45.216Z,96931.64
2018-07-14T16:01:52.211Z,96933.61
2018-07-14T16:02:58.417Z,96930.84
2018-07-14T16:04:04.551Z,96930.05
2018-07-14T16:05:11.665Z,96930.05
2018-07-14T16:06:18.249Z,96925.11
2018-07-14T16:07:24.353Z,96930.84
2018-07-14T16:08:30.415Z,96923.95
2018-07-14T16:09:37.203Z,96923.38
2018-07-14T16:10:43.423Z,96923.73
2018-07-14T16:11:49.903Z,96925.11
2018-07-14T16:12:57.489Z,96920.79
2018-07-14T16:14:05.656Z,96920.21
2018-07-14T16:15:11.594Z,96921.95
2018-07-14T16:16:17.699Z,96930.02
2018-07-14T16:17:25.749Z,96931.39
2018-07-14T16:18:33.666Z,96928.45
2018-07-14T16:19:40.529Z,96924.09
2018-07-14T16:20:46.914Z,96922.72
2018-07-14T16:21:53.273Z,96922.31
2018-07-14T16:22:59.450Z,96920.65
2018-07-14T16:24:05.530Z,96924.75
2018-07-14T16:25:11.595Z,96915.49
2018-07-14T16:26:17.577Z,96922.17
2018-07-14T16:27:23.927Z,96921.37
2018-07-14T16:28:32.159Z,96916.66
2018-07-14T16:29:40.155Z,96915.49
2018-07-14T16:30:46.379Z,96913.50
2018-07-14T16:31:54.078Z,96914.87
2018-07-14T16:33:00.567Z,96918.25
2018-07-14T16:34:06.544Z,96910.74
2018-07-14T16:35:14.777Z,96909.36
2018-07-14T16:36:22.221Z,96910.74
2018-07-14T16:37:28.764Z,96907.80
2018-07-14T16:38:35.890Z,96916.26
2018-07-14T16:39:43.225Z,96909.36
2018-07-14T16:40:54.947Z,96910.96
2018-07-14T16:42:00.834Z,96909.36
2018-07-14T16:43:07.095Z,96904.25
2018-07-14T16:44:13.091Z,96904.61
2018-07-14T16:45:19.157Z,96905.59
2018-07-14T16:47:36.011Z,96902.42
2018-07-14T16:48:42.100Z,96903.80
2018-07-14T16:49:48.130Z,96906.56
2018-07-14T16:50:54.126Z,96895.90
2018-07-14T16:52:00.301Z,96895.10
2018-07-14T16:53:07.426Z,96899.23
2018-07-14T16:54:13.571Z,96897.06
2018-07-14T16:55:29.584Z,96897.64
2018-07-14T16:56:36.034Z,96893.32
2018-07-14T16:57:42.492Z,96889.14
2018-07-14T16:58:49.561Z,96895.16
2018-07-14T16:59:56.127Z,96891.92
2018-07-14T17:01:03.402Z,96891.48
2018-07-14T17:02:10.021Z,96888.09
2018-07-14T17:03:16.594Z,96890.78
2018-07-14T17:04:24.350Z,96894.30
2018-07-14T17:05:30.753Z,96887.19
2018-07-14T17:06:37.111Z,96889.94
2018-07-14T17:07:43.775Z,96883.02
2018-07-14T17:08:50.075Z,96886.73
2018-07-14T17:09:56.325Z,96884.70
2018-07-14T17:11:03.208Z,96881.95
2018-07-14T17:12:10.111Z,96885.09
2018-07-14T17:13:18.233Z,96883.72
2018-07-14T17:14:25.061Z,96886.26
2018-07-14T17:15:31.613Z,96881.14
2018-07-14T17:16:37.938Z,96881.50
2018-07-14T17:17:47.551Z,96879.55
2018-07-14T17:18:53.983Z,96882.08
2018-07-14T17:20:01.256Z,96877.95
2018-07-14T17:21:07.834Z,96872.83
2018-07-14T17:22:14.287Z,96874.20
2018-07-14T17:23:21.345Z,96873.77
2018-07-14T17:24:27.810Z,96874.16
2018-07-14T17:25:34.102Z,96878.66
2018-07-14T17:26:41.353Z,96866.66
2018-07-14T17:27:47.908Z,96876.87
2018-07-14T17:28:55.633Z,96876.66
2018-07-14T17:30:02.213Z,96871.14
2018-07-14T17:31:10.921Z,96872.12
2018-07-14T17:32:17.230Z,96868.30
2018-07-14T17:33:23.892Z,96873.18
2018-07-14T17:34:31.616Z,96873.75
2018-07-14T17:35:37.929Z,96876.06
2018-07-14T17:36:44.095Z,96867.14
2018-07-14T17:37:52.634Z,96875.19
2018-07-14T17:38:59.628Z,96873.40
2018-07-14T17:40:06.295Z,96872.77
2018-07-14T17:41:13.650Z,96876.49
2018-07-14T17:42:20.458Z,96873.11
2018-07-14T17:43:28.826Z,96873.06
2018-07-14T17:44:35.047Z,96870.84
2018-07-14T17:45:41.422Z,96870.78
2018-07-14T17:46:48.833Z,96867.41
2018-07-14T17:47:56.672Z,96867.92
2018-07-14T17:49:03.183Z,96872.23
2018-07-14T17:50:09.493Z,96865.52
2018-07-14T17:51:18.163Z,96871.16
2018-07-14T17:52:24.936Z,96868.34
2018-07-14T17:53:31.954Z,96869.09
2018-07-14T17:54:39.396Z,96869.84
2018-07-14T17:55:45.646Z,96867.61
2018-07-14T17:56:52.574Z,96870.30
2018-07-14T17:58:01.774Z,96873.19
2018-07-14T17:59:10.375Z,96874.16
2018-07-14T18:00:16.735Z,96879.82
2018-07-14T18:01:23.845Z,96872.88
2018-07-14T18:02:30.338Z,96872.47